sensor_id;sensor_type;location;lat;lon;timestamp;P1;durP1;ratioP1;P2;durP2;ratioP2
26082;SDS011;13848;49.018;12.078;2023-09-18T00:00:58;5.45;;;4.53;;
26082;SDS011;13848;49.018;12.078;2023-09-18T00:03:24;7.85;;;5.05;;
26082;SDS011;13848;49.018;12.078;2023-09-18T00:05:50;5.68;;;4.78;;
26082;SDS011;13848;49.018;12.078;2023-09-18T00:08:16;6.78;;;5.20;;
26082;SDS011;13848;49.018;12.078;2023-09-18T00:10:43;6.78;;;5.43;;
26082;SDS011;13848;49.018;12.078;2023-09-18T00:13:14;9.75;;;5.50;;
26082;SDS011;13848;49.018;12.078;2023-09-18T00:15:40;7.20;;;5.05;;
26082;SDS011;13848;49.018;12.078;2023-09-18T00:18:06;7.32;;;5.10;;
26082;SDS011;13848;49.018;12.078;2023-09-18T00:20:32;7.25;;;5.55;;
26082;SDS011;13848;49.018;12.078;2023-09-18T00:22:58;6.30;;;5.30;;
26082;SDS011;13848;49.018;12.078;2023-09-18T00:25:24;6.53;;;4.95;;
26082;SDS011;13848;49.018;12.078;2023-09-18T00:27:50;7.30;;;5.13;;
26082;SDS011;13848;49.018;12.078;2023-09-18T00:30:17;5.38;;;4.88;;
26082;SDS011;13848;49.018;12.078;2023-09-18T00:32:43;6.60;;;5.55;;
26082;SDS011;13848;49.018;12.078;2023-09-18T00:35:09;8.10;;;6.20;;
26082;SDS011;13848;49.018;12.078;2023-09-18T00:37:35;6.45;;;5.65;;
26082;SDS011;13848;49.018;12.078;2023-09-18T00:40:01;5.97;;;5.22;;
26082;SDS011;13848;49.018;12.078;2023-09-18T00:42:27;6.95;;;5.78;;
26082;SDS011;13848;49.018;12.078;2023-09-18T00:44:53;6.70;;;5.70;;
26082;SDS011;13848;49.018;12.078;2023-09-18T00:47:20;6.40;;;5.80;;
26082;SDS011;13848;49.018;12.078;2023-09-18T00:49:46;9.30;;;5.38;;
26082;SDS011;13848;49.018;12.078;2023-09-18T00:52:14;6.32;;;5.38;;
26082;SDS011;13848;49.018;12.078;2023-09-18T00:54:42;7.35;;;5.10;;
26082;SDS011;13848;49.018;12.078;2023-09-18T00:57:10;5.40;;;4.90;;
26082;SDS011;13848;49.018;12.078;2023-09-18T00:59:36;6.30;;;5.00;;
26082;SDS011;13848;49.018;12.078;2023-09-18T01:02:02;5.70;;;5.03;;
26082;SDS011;13848;49.018;12.078;2023-09-18T01:04:30;5.28;;;4.53;;
26082;SDS011;13848;49.018;12.078;2023-09-18T01:06:58;5.93;;;4.97;;
26082;SDS011;13848;49.018;12.078;2023-09-18T01:09:24;7.80;;;4.80;;
26082;SDS011;13848;49.018;12.078;2023-09-18T01:11:51;5.38;;;4.78;;
26082;SDS011;13848;49.018;12.078;2023-09-18T01:14:25;6.15;;;5.03;;
26082;SDS011;13848;49.018;12.078;2023-09-18T01:19:40;6.72;;;5.30;;
26082;SDS011;13848;49.018;12.078;2023-09-18T01:22:08;4.65;;;4.22;;
26082;SDS011;13848;49.018;12.078;2023-09-18T01:24:37;9.70;;;5.13;;
26082;SDS011;13848;49.018;12.078;2023-09-18T01:27:05;6.53;;;4.95;;
26082;SDS011;13848;49.018;12.078;2023-09-18T01:29:34;6.90;;;5.05;;
26082;SDS011;13848;49.018;12.078;2023-09-18T01:32:00;7.70;;;4.85;;
26082;SDS011;13848;49.018;12.078;2023-09-18T01:34:26;5.65;;;4.60;;
26082;SDS011;13848;49.018;12.078;2023-09-18T01:36:56;5.88;;;4.55;;
26082;SDS011;13848;49.018;12.078;2023-09-18T01:39:23;5.68;;;4.75;;
26082;SDS011;13848;49.018;12.078;2023-09-18T01:41:51;7.80;;;5.28;;
26082;SDS011;13848;49.018;12.078;2023-09-18T01:44:17;5.25;;;4.75;;
26082;SDS011;13848;49.018;12.078;2023-09-18T01:46:43;6.00;;;4.90;;
26082;SDS011;13848;49.018;12.078;2023-09-18T01:49:10;5.75;;;4.82;;
26082;SDS011;13848;49.018;12.078;2023-09-18T01:51:36;5.63;;;4.82;;
26082;SDS011;13848;49.018;12.078;2023-09-18T01:54:02;4.65;;;4.22;;
26082;SDS011;13848;49.018;12.078;2023-09-18T01:56:28;7.80;;;5.45;;
26082;SDS011;13848;49.018;12.078;2023-09-18T01:58:55;6.40;;;5.32;;
26082;SDS011;13848;49.018;12.078;2023-09-18T02:01:21;5.80;;;4.80;;
26082;SDS011;13848;49.018;12.078;2023-09-18T02:03:47;7.32;;;5.03;;
26082;SDS011;13848;49.018;12.078;2023-09-18T02:06:13;6.15;;;4.85;;
26082;SDS011;13848;49.018;12.078;2023-09-18T02:08:39;5.90;;;5.22;;
26082;SDS011;13848;49.018;12.078;2023-09-18T02:11:05;6.07;;;5.20;;
26082;SDS011;13848;49.018;12.078;2023-09-18T02:13:31;6.72;;;5.80;;
26082;SDS011;13848;49.018;12.078;2023-09-18T02:15:58;6.80;;;5.40;;
26082;SDS011;13848;49.018;12.078;2023-09-18T02:18:24;7.22;;;5.72;;
26082;SDS011;13848;49.018;12.078;2023-09-18T02:20:50;9.02;;;5.40;;
26082;SDS011;13848;49.018;12.078;2023-09-18T02:23:16;6.55;;;5.57;;
26082;SDS011;13848;49.018;12.078;2023-09-18T02:25:42;6.22;;;5.10;;
26082;SDS011;13848;49.018;12.078;2023-09-18T02:28:08;7.05;;;5.25;;
26082;SDS011;13848;49.018;12.078;2023-09-18T02:30:33;8.45;;;5.30;;
26082;SDS011;13848;49.018;12.078;2023-09-18T02:33:01;5.85;;;4.80;;
26082;SDS011;13848;49.018;12.078;2023-09-18T02:35:27;5.90;;;5.20;;
26082;SDS011;13848;49.018;12.078;2023-09-18T02:37:53;8.63;;;5.03;;
26082;SDS011;13848;49.018;12.078;2023-09-18T02:40:19;6.40;;;4.97;;
26082;SDS011;13848;49.018;12.078;2023-09-18T02:42:45;7.00;;;4.70;;
26082;SDS011;13848;49.018;12.078;2023-09-18T02:45:11;5.65;;;4.70;;
26082;SDS011;13848;49.018;12.078;2023-09-18T02:47:37;5.97;;;5.00;;
26082;SDS011;13848;49.018;12.078;2023-09-18T02:50:05;6.68;;;5.35;;
26082;SDS011;13848;49.018;12.078;2023-09-18T02:52:31;5.43;;;4.75;;
26082;SDS011;13848;49.018;12.078;2023-09-18T02:54:57;7.38;;;5.43;;
26082;SDS011;13848;49.018;12.078;2023-09-18T02:57:23;6.63;;;5.18;;
26082;SDS011;13848;49.018;12.078;2023-09-18T02:59:49;5.45;;;4.70;;
26082;SDS011;13848;49.018;12.078;2023-09-18T03:02:15;6.05;;;5.45;;
26082;SDS011;13848;49.018;12.078;2023-09-18T03:04:41;7.88;;;5.40;;
26082;SDS011;13848;49.018;12.078;2023-09-18T03:07:08;7.20;;;5.68;;
26082;SDS011;13848;49.018;12.078;2023-09-18T03:09:34;6.75;;;5.50;;
26082;SDS011;13848;49.018;12.078;2023-09-18T03:12:00;7.93;;;5.47;;
26082;SDS011;13848;49.018;12.078;2023-09-18T03:14:26;5.50;;;5.00;;
26082;SDS011;13848;49.018;12.078;2023-09-18T03:16:52;6.72;;;5.43;;
26082;SDS011;13848;49.018;12.078;2023-09-18T03:19:17;6.00;;;4.78;;
26082;SDS011;13848;49.018;12.078;2023-09-18T03:21:43;5.65;;;4.90;;
26082;SDS011;13848;49.018;12.078;2023-09-18T03:24:11;5.82;;;5.22;;
26082;SDS011;13848;49.018;12.078;2023-09-18T03:26:37;7.90;;;5.63;;
26082;SDS011;13848;49.018;12.078;2023-09-18T03:29:02;6.22;;;5.63;;
26082;SDS011;13848;49.018;12.078;2023-09-18T03:31:29;6.55;;;5.18;;
26082;SDS011;13848;49.018;12.078;2023-09-18T03:33:54;11.88;;;5.97;;
26082;SDS011;13848;49.018;12.078;2023-09-18T03:36:21;7.47;;;4.75;;
26082;SDS011;13848;49.018;12.078;2023-09-18T03:38:47;8.93;;;5.30;;
26082;SDS011;13848;49.018;12.078;2023-09-18T03:41:14;7.28;;;5.53;;
26082;SDS011;13848;49.018;12.078;2023-09-18T03:43:40;6.90;;;5.00;;
26082;SDS011;13848;49.018;12.078;2023-09-18T03:46:06;7.00;;;5.30;;
26082;SDS011;13848;49.018;12.078;2023-09-18T03:48:32;5.88;;;5.25;;
26082;SDS011;13848;49.018;12.078;2023-09-18T03:50:58;6.07;;;5.45;;
26082;SDS011;13848;49.018;12.078;2023-09-18T03:53:24;6.45;;;5.35;;
26082;SDS011;13848;49.018;12.078;2023-09-18T03:55:50;6.57;;;5.88;;
26082;SDS011;13848;49.018;12.078;2023-09-18T03:58:18;8.95;;;5.30;;
26082;SDS011;13848;49.018;12.078;2023-09-18T04:00:43;11.68;;;5.63;;
26082;SDS011;13848;49.018;12.078;2023-09-18T04:03:09;6.60;;;5.88;;
26082;SDS011;13848;49.018;12.078;2023-09-18T04:05:35;6.28;;;5.63;;
26082;SDS011;13848;49.018;12.078;2023-09-18T04:08:01;6.25;;;5.65;;
26082;SDS011;13848;49.018;12.078;2023-09-18T04:10:27;7.38;;;5.22;;
26082;SDS011;13848;49.018;12.078;2023-09-18T04:12:53;6.53;;;5.05;;
26082;SDS011;13848;49.018;12.078;2023-09-18T04:15:22;6.63;;;5.32;;
26082;SDS011;13848;49.018;12.078;2023-09-18T04:17:48;6.30;;;5.47;;
26082;SDS011;13848;49.018;12.078;2023-09-18T04:20:14;5.75;;;5.15;;
26082;SDS011;13848;49.018;12.078;2023-09-18T04:22:42;8.85;;;6.47;;
26082;SDS011;13848;49.018;12.078;2023-09-18T04:25:09;8.80;;;5.80;;
26082;SDS011;13848;49.018;12.078;2023-09-18T04:27:35;8.65;;;5.18;;
26082;SDS011;13848;49.018;12.078;2023-09-18T04:30:01;6.53;;;5.43;;
26082;SDS011;13848;49.018;12.078;2023-09-18T04:32:28;6.97;;;5.85;;
26082;SDS011;13848;49.018;12.078;2023-09-18T04:34:54;6.93;;;5.47;;
26082;SDS011;13848;49.018;12.078;2023-09-18T04:37:20;8.25;;;5.53;;
26082;SDS011;13848;49.018;12.078;2023-09-18T04:39:46;8.80;;;5.68;;
26082;SDS011;13848;49.018;12.078;2023-09-18T04:42:12;9.55;;;5.88;;
26082;SDS011;13848;49.018;12.078;2023-09-18T04:44:38;6.95;;;5.40;;
26082;SDS011;13848;49.018;12.078;2023-09-18T04:47:04;8.02;;;5.28;;
26082;SDS011;13848;49.018;12.078;2023-09-18T04:49:31;6.18;;;5.53;;
26082;SDS011;13848;49.018;12.078;2023-09-18T04:51:57;7.57;;;6.15;;
26082;SDS011;13848;49.018;12.078;2023-09-18T04:54:23;7.20;;;5.50;;
26082;SDS011;13848;49.018;12.078;2023-09-18T04:56:49;7.35;;;5.95;;
26082;SDS011;13848;49.018;12.078;2023-09-18T04:59:15;6.60;;;5.85;;
26082;SDS011;13848;49.018;12.078;2023-09-18T05:01:41;7.20;;;6.10;;
26082;SDS011;13848;49.018;12.078;2023-09-18T05:04:07;8.02;;;5.88;;
26082;SDS011;13848;49.018;12.078;2023-09-18T05:06:34;6.20;;;5.57;;
26082;SDS011;13848;49.018;12.078;2023-09-18T05:09:00;8.63;;;6.43;;
26082;SDS011;13848;49.018;12.078;2023-09-18T05:11:26;11.77;;;6.22;;
26082;SDS011;13848;49.018;12.078;2023-09-18T05:13:52;7.75;;;6.20;;
26082;SDS011;13848;49.018;12.078;2023-09-18T05:16:18;8.48;;;6.55;;
26082;SDS011;13848;49.018;12.078;2023-09-18T05:18:44;7.38;;;5.60;;
26082;SDS011;13848;49.018;12.078;2023-09-18T05:21:10;7.63;;;6.15;;
26082;SDS011;13848;49.018;12.078;2023-09-18T05:23:37;7.20;;;5.50;;
26082;SDS011;13848;49.018;12.078;2023-09-18T05:26:03;7.53;;;6.55;;
26082;SDS011;13848;49.018;12.078;2023-09-18T05:28:29;9.38;;;6.60;;
26082;SDS011;13848;49.018;12.078;2023-09-18T05:30:55;15.57;;;6.32;;
26082;SDS011;13848;49.018;12.078;2023-09-18T05:33:21;7.90;;;6.38;;
26082;SDS011;13848;49.018;12.078;2023-09-18T05:35:47;12.30;;;6.10;;
26082;SDS011;13848;49.018;12.078;2023-09-18T05:38:13;8.25;;;6.45;;
26082;SDS011;13848;49.018;12.078;2023-09-18T05:40:41;7.15;;;5.68;;
26082;SDS011;13848;49.018;12.078;2023-09-18T05:43:07;7.00;;;6.05;;
26082;SDS011;13848;49.018;12.078;2023-09-18T05:45:33;6.88;;;5.85;;
26082;SDS011;13848;49.018;12.078;2023-09-18T05:47:59;9.48;;;6.03;;
26082;SDS011;13848;49.018;12.078;2023-09-18T05:50:25;7.90;;;6.22;;
26082;SDS011;13848;49.018;12.078;2023-09-18T05:52:51;10.07;;;6.35;;
26082;SDS011;13848;49.018;12.078;2023-09-18T05:55:17;11.52;;;7.28;;
26082;SDS011;13848;49.018;12.078;2023-09-18T05:57:44;13.60;;;6.90;;
26082;SDS011;13848;49.018;12.078;2023-09-18T06:00:11;13.15;;;7.05;;
26082;SDS011;13848;49.018;12.078;2023-09-18T06:02:37;9.35;;;6.13;;
26082;SDS011;13848;49.018;12.078;2023-09-18T06:05:03;8.07;;;6.20;;
26082;SDS011;13848;49.018;12.078;2023-09-18T06:07:30;10.73;;;6.05;;
26082;SDS011;13848;49.018;12.078;2023-09-18T06:09:57;10.10;;;6.35;;
26082;SDS011;13848;49.018;12.078;2023-09-18T06:12:23;6.82;;;5.80;;
26082;SDS011;13848;49.018;12.078;2023-09-18T06:14:50;8.07;;;5.78;;
26082;SDS011;13848;49.018;12.078;2023-09-18T06:17:16;7.10;;;5.20;;
26082;SDS011;13848;49.018;12.078;2023-09-18T06:19:43;7.13;;;6.35;;
26082;SDS011;13848;49.018;12.078;2023-09-18T06:22:09;7.10;;;5.97;;
26082;SDS011;13848;49.018;12.078;2023-09-18T06:24:35;8.85;;;5.97;;
26082;SDS011;13848;49.018;12.078;2023-09-18T06:27:02;7.35;;;5.68;;
26082;SDS011;13848;49.018;12.078;2023-09-18T06:29:29;7.18;;;5.50;;
26082;SDS011;13848;49.018;12.078;2023-09-18T06:31:56;7.32;;;5.90;;
26082;SDS011;13848;49.018;12.078;2023-09-18T06:34:22;7.40;;;5.68;;
26082;SDS011;13848;49.018;12.078;2023-09-18T06:36:48;6.93;;;5.45;;
26082;SDS011;13848;49.018;12.078;2023-09-18T06:39:14;8.52;;;5.53;;
26082;SDS011;13848;49.018;12.078;2023-09-18T06:41:40;7.20;;;5.43;;
26082;SDS011;13848;49.018;12.078;2023-09-18T06:44:06;7.53;;;5.28;;
26082;SDS011;13848;49.018;12.078;2023-09-18T06:46:32;8.70;;;5.10;;
26082;SDS011;13848;49.018;12.078;2023-09-18T06:48:59;8.30;;;5.53;;
26082;SDS011;13848;49.018;12.078;2023-09-18T06:51:25;8.05;;;5.40;;
26082;SDS011;13848;49.018;12.078;2023-09-18T06:53:51;6.00;;;4.90;;
26082;SDS011;13848;49.018;12.078;2023-09-18T06:56:17;11.07;;;5.80;;
26082;SDS011;13848;49.018;12.078;2023-09-18T06:58:43;6.63;;;5.28;;
26082;SDS011;13848;49.018;12.078;2023-09-18T07:01:09;10.82;;;5.65;;
26082;SDS011;13848;49.018;12.078;2023-09-18T07:03:35;6.07;;;5.47;;
26082;SDS011;13848;49.018;12.078;2023-09-18T07:06:03;8.48;;;5.43;;
26082;SDS011;13848;49.018;12.078;2023-09-18T07:08:29;6.13;;;5.40;;
26082;SDS011;13848;49.018;12.078;2023-09-18T07:10:55;5.90;;;5.15;;
26082;SDS011;13848;49.018;12.078;2023-09-18T07:13:21;5.95;;;5.35;;
26082;SDS011;13848;49.018;12.078;2023-09-18T07:15:47;8.82;;;5.40;;
26082;SDS011;13848;49.018;12.078;2023-09-18T07:18:13;6.00;;;4.70;;
26082;SDS011;13848;49.018;12.078;2023-09-18T07:20:39;5.97;;;4.28;;
26082;SDS011;13848;49.018;12.078;2023-09-18T07:23:06;6.07;;;5.10;;
26082;SDS011;13848;49.018;12.078;2023-09-18T07:25:33;5.45;;;4.82;;
26082;SDS011;13848;49.018;12.078;2023-09-18T07:27:59;5.45;;;4.38;;
26082;SDS011;13848;49.018;12.078;2023-09-18T07:30:25;7.20;;;4.88;;
26082;SDS011;13848;49.018;12.078;2023-09-18T07:32:51;9.32;;;4.70;;
26082;SDS011;13848;49.018;12.078;2023-09-18T07:35:17;10.65;;;5.22;;
26082;SDS011;13848;49.018;12.078;2023-09-18T07:37:43;5.68;;;4.75;;
26082;SDS011;13848;49.018;12.078;2023-09-18T07:40:11;5.20;;;4.70;;
26082;SDS011;13848;49.018;12.078;2023-09-18T07:42:37;5.28;;;4.55;;
26082;SDS011;13848;49.018;12.078;2023-09-18T07:45:05;7.90;;;4.45;;
26082;SDS011;13848;49.018;12.078;2023-09-18T07:47:32;5.95;;;5.00;;
26082;SDS011;13848;49.018;12.078;2023-09-18T07:49:58;6.00;;;5.00;;
26082;SDS011;13848;49.018;12.078;2023-09-18T07:52:24;7.93;;;4.57;;
26082;SDS011;13848;49.018;12.078;2023-09-18T07:54:50;7.25;;;5.00;;
26082;SDS011;13848;49.018;12.078;2023-09-18T07:57:17;4.93;;;4.30;;
26082;SDS011;13848;49.018;12.078;2023-09-18T07:59:44;5.88;;;4.28;;
26082;SDS011;13848;49.018;12.078;2023-09-18T08:02:10;6.60;;;4.43;;
26082;SDS011;13848;49.018;12.078;2023-09-18T08:04:35;6.78;;;4.35;;
26082;SDS011;13848;49.018;12.078;2023-09-18T08:07:02;7.22;;;4.90;;
26082;SDS011;13848;49.018;12.078;2023-09-18T08:09:28;5.10;;;4.07;;
26082;SDS011;13848;49.018;12.078;2023-09-18T08:11:54;5.78;;;4.38;;
26082;SDS011;13848;49.018;12.078;2023-09-18T08:14:21;6.78;;;5.32;;
26082;SDS011;13848;49.018;12.078;2023-09-18T08:16:48;5.20;;;4.70;;
26082;SDS011;13848;49.018;12.078;2023-09-18T08:19:21;5.93;;;4.65;;
26082;SDS011;13848;49.018;12.078;2023-09-18T08:21:47;7.55;;;4.88;;
26082;SDS011;13848;49.018;12.078;2023-09-18T08:24:13;7.53;;;4.50;;
26082;SDS011;13848;49.018;12.078;2023-09-18T08:26:39;8.68;;;4.55;;
26082;SDS011;13848;49.018;12.078;2023-09-18T08:29:05;6.43;;;4.75;;
26082;SDS011;13848;49.018;12.078;2023-09-18T08:31:32;5.18;;;4.55;;
26082;SDS011;13848;49.018;12.078;2023-09-18T08:33:58;5.70;;;4.00;;
26082;SDS011;13848;49.018;12.078;2023-09-18T08:36:24;7.28;;;4.22;;
26082;SDS011;13848;49.018;12.078;2023-09-18T08:38:50;5.18;;;3.90;;
26082;SDS011;13848;49.018;12.078;2023-09-18T08:41:16;6.63;;;3.75;;
26082;SDS011;13848;49.018;12.078;2023-09-18T08:43:43;8.98;;;5.80;;
26082;SDS011;13848;49.018;12.078;2023-09-18T08:46:11;10.43;;;4.18;;
26082;SDS011;13848;49.018;12.078;2023-09-18T08:48:39;18.58;;;4.20;;
26082;SDS011;13848;49.018;12.078;2023-09-18T08:51:06;6.85;;;4.38;;
26082;SDS011;13848;49.018;12.078;2023-09-18T08:53:34;11.00;;;3.83;;
26082;SDS011;13848;49.018;12.078;2023-09-18T08:56:01;9.52;;;3.85;;
26082;SDS011;13848;49.018;12.078;2023-09-18T08:58:29;4.63;;;3.95;;
26082;SDS011;13848;49.018;12.078;2023-09-18T09:00:58;14.93;;;4.43;;
26082;SDS011;13848;49.018;12.078;2023-09-18T09:03:24;8.80;;;4.75;;
26082;SDS011;13848;49.018;12.078;2023-09-18T09:05:53;10.20;;;4.10;;
26082;SDS011;13848;49.018;12.078;2023-09-18T09:08:19;5.43;;;3.60;;
26082;SDS011;13848;49.018;12.078;2023-09-18T09:10:45;6.45;;;3.95;;
26082;SDS011;13848;49.018;12.078;2023-09-18T09:13:11;7.93;;;4.05;;
26082;SDS011;13848;49.018;12.078;2023-09-18T09:15:43;5.35;;;4.07;;
26082;SDS011;13848;49.018;12.078;2023-09-18T09:18:10;6.55;;;3.72;;
26082;SDS011;13848;49.018;12.078;2023-09-18T09:20:37;4.00;;;3.60;;
26082;SDS011;13848;49.018;12.078;2023-09-18T09:23:05;7.88;;;4.10;;
26082;SDS011;13848;49.018;12.078;2023-09-18T09:25:35;7.00;;;3.97;;
26082;SDS011;13848;49.018;12.078;2023-09-18T09:28:02;8.95;;;4.20;;
26082;SDS011;13848;49.018;12.078;2023-09-18T09:30:30;6.05;;;4.10;;
26082;SDS011;13848;49.018;12.078;2023-09-18T09:32:57;4.68;;;3.33;;
26082;SDS011;13848;49.018;12.078;2023-09-18T09:35:25;6.78;;;4.03;;
26082;SDS011;13848;49.018;12.078;2023-09-18T09:37:52;8.93;;;4.03;;
26082;SDS011;13848;49.018;12.078;2023-09-18T09:40:21;12.57;;;3.90;;
26082;SDS011;13848;49.018;12.078;2023-09-18T09:42:47;8.63;;;4.35;;
26082;SDS011;13848;49.018;12.078;2023-09-18T09:45:14;6.13;;;3.55;;
26082;SDS011;13848;49.018;12.078;2023-09-18T09:47:40;6.38;;;3.95;;
26082;SDS011;13848;49.018;12.078;2023-09-18T09:50:07;6.63;;;3.42;;
26082;SDS011;13848;49.018;12.078;2023-09-18T09:52:34;6.05;;;3.72;;
26082;SDS011;13848;49.018;12.078;2023-09-18T09:55:00;8.68;;;4.10;;
26082;SDS011;13848;49.018;12.078;2023-09-18T09:57:28;6.60;;;3.85;;
26082;SDS011;13848;49.018;12.078;2023-09-18T09:59:57;5.28;;;3.50;;
26082;SDS011;13848;49.018;12.078;2023-09-18T10:02:29;7.80;;;3.72;;
26082;SDS011;13848;49.018;12.078;2023-09-18T10:04:57;7.28;;;3.97;;
26082;SDS011;13848;49.018;12.078;2023-09-18T10:07:23;8.88;;;3.85;;
26082;SDS011;13848;49.018;12.078;2023-09-18T10:09:49;7.40;;;4.10;;
26082;SDS011;13848;49.018;12.078;2023-09-18T10:12:15;7.53;;;3.65;;
26082;SDS011;13848;49.018;12.078;2023-09-18T10:14:45;7.40;;;3.65;;
26082;SDS011;13848;49.018;12.078;2023-09-18T10:17:15;6.53;;;3.95;;
26082;SDS011;13848;49.018;12.078;2023-09-18T10:19:45;9.32;;;3.85;;
26082;SDS011;13848;49.018;12.078;2023-09-18T10:22:16;4.57;;;3.60;;
26082;SDS011;13848;49.018;12.078;2023-09-18T10:24:50;7.45;;;3.78;;
26082;SDS011;13848;49.018;12.078;2023-09-18T10:27:26;6.90;;;3.60;;
26082;SDS011;13848;49.018;12.078;2023-09-18T10:29:54;7.13;;;3.63;;
26082;SDS011;13848;49.018;12.078;2023-09-18T10:32:21;5.95;;;3.50;;
26082;SDS011;13848;49.018;12.078;2023-09-18T10:34:47;9.32;;;3.65;;
26082;SDS011;13848;49.018;12.078;2023-09-18T10:37:14;6.70;;;3.30;;
26082;SDS011;13848;49.018;12.078;2023-09-18T10:39:41;6.53;;;3.83;;
26082;SDS011;13848;49.018;12.078;2023-09-18T10:42:08;8.25;;;3.53;;
26082;SDS011;13848;49.018;12.078;2023-09-18T10:44:35;8.90;;;3.60;;
26082;SDS011;13848;49.018;12.078;2023-09-18T10:47:03;4.93;;;3.70;;
26082;SDS011;13848;49.018;12.078;2023-09-18T10:49:31;7.90;;;3.47;;
26082;SDS011;13848;49.018;12.078;2023-09-18T10:51:57;8.52;;;3.55;;
26082;SDS011;13848;49.018;12.078;2023-09-18T10:54:24;6.53;;;3.20;;
26082;SDS011;13848;49.018;12.078;2023-09-18T10:56:51;11.70;;;3.83;;
26082;SDS011;13848;49.018;12.078;2023-09-18T10:59:17;6.78;;;3.00;;
26082;SDS011;13848;49.018;12.078;2023-09-18T11:01:43;8.38;;;3.67;;
26082;SDS011;13848;49.018;12.078;2023-09-18T11:04:11;9.00;;;3.25;;
26082;SDS011;13848;49.018;12.078;2023-09-18T11:09:27;6.68;;;3.50;;
26082;SDS011;13848;49.018;12.078;2023-09-18T11:11:56;10.90;;;3.00;;
26082;SDS011;13848;49.018;12.078;2023-09-18T11:14:40;8.05;;;3.35;;
26082;SDS011;13848;49.018;12.078;2023-09-18T11:17:09;10.23;;;3.53;;
26082;SDS011;13848;49.018;12.078;2023-09-18T11:20:02;6.55;;;3.20;;
26082;SDS011;13848;49.018;12.078;2023-09-18T11:22:29;11.90;;;3.65;;
26082;SDS011;13848;49.018;12.078;2023-09-18T11:25:01;12.75;;;3.58;;
26082;SDS011;13848;49.018;12.078;2023-09-18T11:28:12;10.65;;;3.20;;
26082;SDS011;13848;49.018;12.078;2023-09-18T11:30:48;7.18;;;3.15;;
26082;SDS011;13848;49.018;12.078;2023-09-18T11:33:14;7.47;;;3.17;;
26082;SDS011;13848;49.018;12.078;2023-09-18T11:35:56;10.33;;;3.63;;
26082;SDS011;13848;49.018;12.078;2023-09-18T11:38:27;6.20;;;3.10;;
26082;SDS011;13848;49.018;12.078;2023-09-18T11:40:53;6.35;;;2.47;;
26082;SDS011;13848;49.018;12.078;2023-09-18T11:43:21;6.53;;;2.70;;
26082;SDS011;13848;49.018;12.078;2023-09-18T11:45:49;9.18;;;2.70;;
26082;SDS011;13848;49.018;12.078;2023-09-18T11:48:15;7.97;;;2.72;;
26082;SDS011;13848;49.018;12.078;2023-09-18T11:50:42;9.13;;;2.67;;
26082;SDS011;13848;49.018;12.078;2023-09-18T11:53:10;6.07;;;2.20;;
26082;SDS011;13848;49.018;12.078;2023-09-18T11:55:37;7.25;;;2.67;;
26082;SDS011;13848;49.018;12.078;2023-09-18T11:58:03;9.40;;;2.83;;
26082;SDS011;13848;49.018;12.078;2023-09-18T12:00:30;7.90;;;2.90;;
26082;SDS011;13848;49.018;12.078;2023-09-18T12:02:56;4.78;;;3.00;;
26082;SDS011;13848;49.018;12.078;2023-09-18T12:05:22;10.98;;;3.72;;
26082;SDS011;13848;49.018;12.078;2023-09-18T12:07:49;10.90;;;3.97;;
26082;SDS011;13848;49.018;12.078;2023-09-18T12:10:18;8.73;;;3.50;;
26082;SDS011;13848;49.018;12.078;2023-09-18T12:12:45;10.90;;;3.40;;
26082;SDS011;13848;49.018;12.078;2023-09-18T12:15:12;6.63;;;3.42;;
26082;SDS011;13848;49.018;12.078;2023-09-18T12:17:39;8.02;;;3.67;;
26082;SDS011;13848;49.018;12.078;2023-09-18T12:20:05;7.38;;;2.83;;
26082;SDS011;13848;49.018;12.078;2023-09-18T12:22:32;5.47;;;1.90;;
26082;SDS011;13848;49.018;12.078;2023-09-18T12:25:10;5.80;;;2.00;;
26082;SDS011;13848;49.018;12.078;2023-09-18T12:27:38;3.83;;;2.00;;
26082;SDS011;13848;49.018;12.078;2023-09-18T12:30:04;11.02;;;2.47;;
26082;SDS011;13848;49.018;12.078;2023-09-18T12:32:31;7.57;;;1.83;;
26082;SDS011;13848;49.018;12.078;2023-09-18T12:34:58;3.92;;;1.40;;
26082;SDS011;13848;49.018;12.078;2023-09-18T12:37:24;5.32;;;1.15;;
26082;SDS011;13848;49.018;12.078;2023-09-18T12:39:50;4.70;;;1.17;;
26082;SDS011;13848;49.018;12.078;2023-09-18T12:42:16;3.88;;;1.20;;
26082;SDS011;13848;49.018;12.078;2023-09-18T12:44:44;1.60;;;1.00;;
26082;SDS011;13848;49.018;12.078;2023-09-18T12:47:11;3.58;;;1.05;;
26082;SDS011;13848;49.018;12.078;2023-09-18T12:49:38;3.67;;;1.10;;
26082;SDS011;13848;49.018;12.078;2023-09-18T12:52:04;3.25;;;0.90;;
26082;SDS011;13848;49.018;12.078;2023-09-18T12:54:37;3.17;;;1.13;;
26082;SDS011;13848;49.018;12.078;2023-09-18T12:57:04;4.38;;;1.00;;
26082;SDS011;13848;49.018;12.078;2023-09-18T12:59:30;4.40;;;1.42;;
26082;SDS011;13848;49.018;12.078;2023-09-18T13:01:58;3.55;;;1.13;;
26082;SDS011;13848;49.018;12.078;2023-09-18T13:04:24;9.50;;;1.38;;
26082;SDS011;13848;49.018;12.078;2023-09-18T13:07:02;5.70;;;1.27;;
26082;SDS011;13848;49.018;12.078;2023-09-18T13:09:28;2.67;;;1.10;;
26082;SDS011;13848;49.018;12.078;2023-09-18T13:11:55;11.45;;;1.10;;
26082;SDS011;13848;49.018;12.078;2023-09-18T13:14:22;4.25;;;1.05;;
26082;SDS011;13848;49.018;12.078;2023-09-18T13:16:48;3.45;;;1.00;;
26082;SDS011;13848;49.018;12.078;2023-09-18T13:19:16;4.65;;;1.10;;
26082;SDS011;13848;49.018;12.078;2023-09-18T13:21:46;3.08;;;1.05;;
26082;SDS011;13848;49.018;12.078;2023-09-18T13:24:23;5.72;;;1.40;;
26082;SDS011;13848;49.018;12.078;2023-09-18T13:26:52;3.72;;;1.15;;
26082;SDS011;13848;49.018;12.078;2023-09-18T13:29:18;2.10;;;0.82;;
26082;SDS011;13848;49.018;12.078;2023-09-18T13:31:44;3.30;;;0.95;;
26082;SDS011;13848;49.018;12.078;2023-09-18T13:34:10;4.72;;;1.20;;
26082;SDS011;13848;49.018;12.078;2023-09-18T13:36:37;2.67;;;0.82;;
26082;SDS011;13848;49.018;12.078;2023-09-18T13:39:04;1.55;;;0.90;;
26082;SDS011;13848;49.018;12.078;2023-09-18T13:41:30;2.65;;;0.90;;
26082;SDS011;13848;49.018;12.078;2023-09-18T13:43:56;6.03;;;1.00;;
26082;SDS011;13848;49.018;12.078;2023-09-18T13:46:23;4.22;;;1.10;;
26082;SDS011;13848;49.018;12.078;2023-09-18T13:48:49;3.60;;;0.98;;
26082;SDS011;13848;49.018;12.078;2023-09-18T13:51:14;2.72;;;0.82;;
26082;SDS011;13848;49.018;12.078;2023-09-18T13:53:42;2.55;;;1.00;;
26082;SDS011;13848;49.018;12.078;2023-09-18T13:56:08;1.90;;;0.93;;
26082;SDS011;13848;49.018;12.078;2023-09-18T13:58:34;2.13;;;0.88;;
26082;SDS011;13848;49.018;12.078;2023-09-18T14:01:00;1.38;;;0.90;;
26082;SDS011;13848;49.018;12.078;2023-09-18T14:03:25;1.80;;;0.80;;
26082;SDS011;13848;49.018;12.078;2023-09-18T14:05:51;2.67;;;0.60;;
26082;SDS011;13848;49.018;12.078;2023-09-18T14:08:17;5.13;;;0.80;;
26082;SDS011;13848;49.018;12.078;2023-09-18T14:10:45;2.92;;;1.00;;
26082;SDS011;13848;49.018;12.078;2023-09-18T14:13:11;1.83;;;0.75;;
26082;SDS011;13848;49.018;12.078;2023-09-18T14:15:37;1.38;;;0.80;;
26082;SDS011;13848;49.018;12.078;2023-09-18T14:18:03;5.07;;;0.85;;
26082;SDS011;13848;49.018;12.078;2023-09-18T14:20:29;1.55;;;0.90;;
26082;SDS011;13848;49.018;12.078;2023-09-18T14:22:56;1.13;;;0.73;;
26082;SDS011;13848;49.018;12.078;2023-09-18T14:25:22;2.47;;;0.90;;
26082;SDS011;13848;49.018;12.078;2023-09-18T14:27:49;5.10;;;0.90;;
26082;SDS011;13848;49.018;12.078;2023-09-18T14:30:15;3.05;;;0.80;;
26082;SDS011;13848;49.018;12.078;2023-09-18T14:32:42;2.85;;;0.90;;
26082;SDS011;13848;49.018;12.078;2023-09-18T14:35:08;1.52;;;0.73;;
26082;SDS011;13848;49.018;12.078;2023-09-18T14:37:35;2.05;;;0.80;;